Time;durP1;ratioP1;P1;durP2;ratioP2;P2;SDS_P1;SDS_P2;PMS_P1;PMS_P2;Temp;Humidity;BMP_temperature;BMP_pressure;BME280_temperature;BME280_humidity;BME280_pressure;Samples;Min_cycle;Max_cycle;Signal;HPM_P1;HPM_P2
2024/02/18 00:01:37;;;;;;;11.70;4.60;;;9.70;99.90;;;9.15;100.00;102871.91;4183356;28;20503;-71
2024/02/18 00:03:37;;;;;;;19.40;6.30;;;9.70;99.90;;;9.17;100.00;102871.84;4182594;28;20029;-71
2024/02/18 00:05:38;;;;;;;19.60;5.32;;;9.80;99.90;;;9.16;100.00;102865.72;4183775;28;20037;-71
2024/02/18 00:07:39;;;;;;;12.35;3.85;;;9.70;99.90;;;9.19;100.00;102868.16;4183741;28;20021;-72
2024/02/18 00:09:40;;;;;;;12.68;4.90;;;9.80;99.90;;;9.14;100.00;102864.13;4167410;28;20029;-71
2024/02/18 00:11:41;;;;;;;17.85;4.95;;;9.70;99.90;;;9.18;100.00;102857.69;4176111;28;20013;-71
2024/02/18 00:13:42;;;;;;;9.32;4.18;;;9.70;99.90;;;9.22;100.00;102861.84;4185142;28;20033;-71
2024/02/18 00:15:43;;;;;;;16.83;5.18;;;9.80;99.90;;;9.24;100.00;102866.06;4184938;28;20033;-71
2024/02/18 00:17:44;;;;;;;8.75;4.03;;;9.80;99.90;;;9.25;100.00;102861.66;4185086;28;20036;-72
2024/02/18 00:19:45;;;;;;;10.65;3.55;;;9.80;99.90;;;9.28;100.00;102859.69;4181706;28;20036;-71
2024/02/18 00:21:46;;;;;;;14.07;4.30;;;9.80;99.90;;;9.30;100.00;102854.31;4175770;28;20036;-71
2024/02/18 00:23:46;;;;;;;10.23;3.70;;;9.90;99.90;;;9.34;100.00;102863.72;4183828;28;20021;-72
2024/02/18 00:25:47;;;;;;;14.38;4.60;;;9.90;99.90;;;9.36;100.00;102859.19;4183568;28;20098;-71
2024/02/18 00:27:48;;;;;;;12.07;4.05;;;9.90;99.90;;;9.38;100.00;102865.19;4185086;28;20025;-72
2024/02/18 00:29:49;;;;;;;13.77;4.60;;;9.90;99.90;;;9.36;100.00;102869.72;4187585;28;20527;-71
2024/02/18 00:31:50;;;;;;;9.90;3.67;;;9.90;99.90;;;9.38;100.00;102873.09;4188431;28;20385;-71
2024/02/18 00:33:51;;;;;;;10.18;3.38;;;9.90;99.90;;;9.38;100.00;102875.72;4188272;28;20037;-71
2024/02/18 00:35:51;;;;;;;13.05;3.55;;;9.90;99.90;;;9.34;100.00;102866.34;4187835;28;20079;-71
2024/02/18 00:37:52;;;;;;;9.63;3.72;;;9.90;99.90;;;9.28;100.00;102869.38;4188470;28;20025;-71
2024/02/18 00:39:53;;;;;;;16.27;4.20;;;9.90;99.90;;;9.28;100.00;102874.63;4170443;28;20076;-72
2024/02/18 00:41:54;;;;;;;12.85;3.60;;;9.90;99.90;;;9.24;100.00;102873.13;4188088;28;20029;-71
2024/02/18 00:43:55;;;;;;;11.73;3.83;;;9.80;99.90;;;9.20;100.00;102869.81;4186837;28;20033;-72
2024/02/18 00:45:56;;;;;;;20.38;4.65;;;9.80;99.90;;;9.18;100.00;102863.81;4187919;28;20029;-71
2024/02/18 00:47:56;;;;;;;9.25;3.75;;;9.80;99.90;;;9.12;100.00;102853.66;4187714;28;20492;-71
2024/02/18 00:49:57;;;;;;;17.65;3.70;;;9.80;99.90;;;9.14;100.00;102861.50;4186647;28;20441;-71
2024/02/18 00:51:58;;;;;;;7.97;3.45;;;9.70;99.90;;;9.14;100.00;102857.03;4188074;28;20068;-71
2024/02/18 00:53:59;;;;;;;11.15;3.75;;;9.70;99.90;;;9.16;100.00;102849.91;4186856;28;20037;-71
2024/02/18 00:56:00;;;;;;;18.08;4.10;;;9.80;99.90;;;9.25;100.00;102856.38;4186822;28;20036;-71
2024/02/18 00:58:01;;;;;;;10.45;2.88;;;9.80;99.90;;;9.23;100.00;102848.56;4187555;28;20476;-71
2024/02/18 01:00:02;;;;;;;15.88;3.60;;;9.80;99.90;;;9.23;100.00;102847.72;4186549;28;20388;-71
2024/02/18 01:02:03;;;;;;;7.10;3.13;;;9.80;99.90;;;9.33;100.00;102851.47;4186397;28;20096;-71
2024/02/18 01:04:04;;;;;;;10.23;3.13;;;9.90;99.90;;;9.37;100.00;102860.88;4187790;28;20083;-71
2024/02/18 01:06:05;;;;;;;10.82;3.35;;;9.90;99.90;;;9.32;100.00;102855.91;4187629;28;20029;-72
2024/02/18 01:08:06;;;;;;;9.07;2.60;;;9.90;99.90;;;9.32;100.00;102858.53;4186638;28;20017;-71
2024/02/18 01:10:09;;;;;;;12.68;2.63;;;9.90;99.90;;;9.33;100.00;102857.59;4187603;28;20024;-71
2024/02/18 01:12:10;;;;;;;11.15;2.53;;;9.90;99.90;;;9.37;100.00;102861.75;4186683;28;20017;-71
2024/02/18 01:14:10;;;;;;;12.32;2.33;;;9.90;99.90;;;9.42;100.00;102858.81;4186644;28;20028;-71
2024/02/18 01:16:11;;;;;;;9.88;2.78;;;9.90;99.90;;;9.44;100.00;102847.22;4187624;28;20029;-71
2024/02/18 01:18:15;;;;;;;19.35;2.75;;;10.00;99.90;;;9.43;100.00;102836.78;4186285;28;20029;-71
2024/02/18 01:20:15;;;;;;;14.00;2.38;;;10.00;99.90;;;9.46;100.00;102839.25;4169806;28;20087;-72
2024/02/18 01:22:16;;;;;;;14.13;2.15;;;10.00;99.90;;;9.49;100.00;102832.94;4186272;28;20079;-71
2024/02/18 01:24:17;;;;;;;11.13;2.28;;;10.00;99.90;;;9.54;100.00;102836.94;4187541;28;20028;-71
2024/02/18 01:26:18;;;;;;;11.45;2.35;;;10.00;99.90;;;9.46;100.00;102828.69;4187410;28;20492;-71
2024/02/18 01:28:19;;;;;;;11.98;2.10;;;10.10;99.90;;;9.49;100.00;102828.50;4186329;28;20021;-71
2024/02/18 01:30:20;;;;;;;9.05;1.88;;;10.10;99.90;;;9.51;100.00;102823.97;4187630;28;20029;-72
2024/02/18 01:32:21;;;;;;;14.10;3.25;;;10.00;99.90;;;9.46;100.00;102815.53;4187330;28;20431;-71
2024/02/18 01:34:22;;;;;;;13.73;1.80;;;10.10;99.90;;;9.48;100.00;102811.00;4185918;28;20024;-72
2024/02/18 01:36:22;;;;;;;5.35;1.90;;;10.00;99.90;;;9.55;100.00;102801.75;4186086;28;20056;-71
2024/02/18 01:38:23;;;;;;;7.97;2.30;;;10.10;99.90;;;9.53;100.00;102789.63;4186013;28;20064;-71
2024/02/18 01:40:24;;;;;;;8.50;2.55;;;10.10;99.90;;;9.50;100.00;102787.22;4186118;28;20520;-71
2024/02/18 01:42:25;;;;;;;12.93;2.53;;;10.10;99.90;;;9.53;100.00;102793.09;4169284;28;20032;-71
2024/02/18 01:44:26;;;;;;;10.13;1.90;;;10.10;99.90;;;9.55;100.00;102793.88;4187400;28;20021;-71
2024/02/18 01:46:27;;;;;;;7.85;2.30;;;10.10;99.90;;;9.51;100.00;102795.00;4186089;28;20025;-71
2024/02/18 01:48:29;;;;;;;8.55;1.95;;;10.10;99.90;;;9.50;100.00;102797.75;4186982;28;20045;-72
2024/02/18 01:50:30;;;;;;;17.15;3.38;;;10.10;99.90;;;9.49;100.00;102807.44;4185685;28;20432;-72
2024/02/18 01:52:31;;;;;;;8.60;2.90;;;10.10;99.90;;;9.48;100.00;102805.72;4187054;28;20025;-71
2024/02/18 01:54:35;;;;;;;8.48;2.03;;;10.10;99.90;;;9.49;100.00;102802.16;4185920;28;20099;-72
2024/02/18 01:56:37;;;;;;;9.43;1.92;;;10.10;99.90;;;9.54;100.00;102792.16;4185975;28;20087;-71
2024/02/18 01:58:38;;;;;;;8.13;1.70;;;10.10;99.90;;;9.55;100.00;102796.50;4185730;28;20111;-72
2024/02/18 02:00:40;;;;;;;15.55;2.58;;;10.20;99.90;;;9.57;100.00;102786.69;4187111;28;20086;-72
2024/02/18 02:02:42;;;;;;;11.30;2.85;;;10.20;99.90;;;9.50;100.00;102774.84;4169051;28;20033;-71
2024/02/18 02:04:44;;;;;;;12.32;1.90;;;10.20;99.90;;;9.59;100.00;102781.34;4185513;28;20083;-71
2024/02/18 02:06:46;;;;;;;13.30;2.60;;;10.20;99.90;;;9.51;100.00;102773.06;4185432;28;20029;-72
2024/02/18 02:08:47;;;;;;;11.93;1.85;;;10.10;99.90;;;9.45;100.00;102761.16;4180027;28;20103;-71
2024/02/18 02:10:50;;;;;;;9.18;2.05;;;10.10;99.90;;;9.47;100.00;102769.78;4170262;28;20029;-71
2024/02/18 02:12:52;;;;;;;12.18;2.05;;;10.10;99.90;;;9.47;100.00;102771.59;4185073;28;20041;-72
2024/02/18 02:14:53;;;;;;;8.52;2.15;;;10.10;99.90;;;9.44;100.00;102769.97;4185613;28;20063;-71
2024/02/18 02:16:54;;;;;;;18.63;2.10;;;10.10;99.90;;;9.45;100.00;102763.78;4186876;28;20028;-71
2024/02/18 02:18:57;;;;;;;6.32;1.50;;;10.10;99.90;;;9.45;100.00;102762.00;4185567;28;20401;-71
2024/02/18 02:20:58;;;;;;;12.13;2.80;;;10.10;99.90;;;9.48;100.00;102768.00;4183004;28;20017;-72
2024/02/18 02:22:59;;;;;;;17.50;2.45;;;10.10;99.90;;;9.50;100.00;102769.59;4184856;28;20036;-71
2024/02/18 02:24:59;;;;;;;12.50;1.77;;;10.00;99.90;;;9.53;100.00;102758.84;4185528;28;20032;-71
2024/02/18 02:27:04;;;;;;;12.07;2.33;;;10.10;99.90;;;9.55;100.00;102742.94;4185294;28;20104;-71
2024/02/18 02:29:12;;;;;;;;;;;10.10;99.90;;;9.65;100.00;102760.69;4185880;28;20020;-71
2024/02/18 02:31:15;;;;;;;16.58;3.45;;;10.20;99.90;;;9.66;100.00;102762.38;4186497;28;19909;-72
2024/02/18 02:33:22;;;;;;;11.63;1.92;;;10.30;99.90;;;9.73;100.00;102779.50;4185524;28;20069;-72
2024/02/18 02:35:27;;;;;;;9.32;2.53;;;10.30;99.90;;;9.77;100.00;102783.59;4184902;28;20025;-72
2024/02/18 02:37:29;;;;;;;10.30;2.05;;;10.30;99.90;;;9.79;100.00;102794.06;4184980;28;20108;-71
2024/02/18 02:39:30;;;;;;;10.93;1.90;;;10.40;99.90;;;9.81;100.00;102793.00;4186574;28;20067;-71
2024/02/18 02:41:31;;;;;;;16.10;2.80;;;10.40;99.90;;;9.85;100.00;102776.03;4185163;28;20063;-71
2024/02/18 02:43:32;;;;;;;10.25;2.15;;;10.40;99.90;;;9.85;100.00;102772.56;4186292;28;20036;-71
2024/02/18 02:45:33;;;;;;;16.90;3.03;;;10.40;99.90;;;9.89;100.00;102776.66;4184869;28;20479;-71
2024/02/18 02:47:34;;;;;;;10.27;2.45;;;10.40;99.90;;;9.87;100.00;102771.50;4155343;28;20022;-71
2024/02/18 02:49:35;;;;;;;12.30;3.47;;;10.50;99.90;;;9.92;100.00;102785.22;4184332;28;20037;-71
2024/02/18 02:51:36;;;;;;;12.07;2.38;;;10.50;99.90;;;9.94;100.00;102782.50;4186009;28;20025;-71
2024/02/18 02:53:37;;;;;;;15.52;2.58;;;10.50;99.90;;;9.94;100.00;102783.34;4186310;28;20400;-71
2024/02/18 02:55:38;;;;;;;15.05;2.08;;;10.50;99.90;;;9.95;100.00;102777.09;4186117;28;20029;-71
2024/02/18 02:57:39;;;;;;;7.72;1.60;;;10.60;99.90;;;9.98;100.00;102778.69;4186130;28;20033;-71
2024/02/18 02:59:39;;;;;;;12.15;2.40;;;10.60;99.90;;;9.98;100.00;102773.41;4186158;28;20025;-71
2024/02/18 03:01:40;;;;;;;8.95;1.90;;;10.60;99.90;;;10.07;100.00;102780.72;4184736;28;20029;-71
2024/02/18 03:03:41;;;;;;;15.55;1.90;;;10.60;99.90;;;10.06;100.00;102772.91;4185623;28;20020;-71
2024/02/18 03:05:42;;;;;;;13.07;1.92;;;10.60;99.90;;;10.06;100.00;102771.13;4185606;28;20033;-72
2024/02/18 03:07:43;;;;;;;12.57;2.65;;;10.60;99.90;;;10.09;100.00;102770.06;4184732;28;20021;-71
2024/02/18 03:09:44;;;;;;;15.45;1.83;;;10.60;99.90;;;10.08;100.00;102776.28;4185869;28;20385;-71
2024/02/18 03:11:45;;;;;;;12.30;1.80;;;10.70;99.90;;;10.06;100.00;102779.03;4184367;28;20107;-72
2024/02/18 03:13:45;;;;;;;10.55;1.85;;;10.70;99.90;;;10.10;100.00;102775.22;4184701;28;20025;-71
2024/02/18 03:15:47;;;;;;;11.35;3.13;;;10.70;99.90;;;10.10;100.00;102764.69;4186155;28;20025;-72
2024/02/18 03:17:48;;;;;;;13.73;2.22;;;10.70;99.90;;;10.11;100.00;102762.91;4184463;28;20025;-71
2024/02/18 03:19:49;;;;;;;10.45;1.80;;;10.70;99.90;;;10.13;100.00;102776.81;4185383;28;20051;-71
2024/02/18 03:21:49;;;;;;;11.35;1.73;;;10.70;99.90;;;10.10;100.00;102769.94;4185681;28;20036;-71
2024/02/18 03:23:53;;;;;;;16.80;2.63;;;10.70;99.90;;;10.11;100.00;102776.06;4185771;28;20021;-72
2024/02/18 03:25:54;;;;;;;15.65;2.20;;;10.70;99.90;;;10.16;100.00;102776.63;4185515;28;20086;-71
2024/02/18 03:27:55;;;;;;;11.07;1.98;;;10.70;99.90;;;10.20;100.00;102780.75;4184142;28;20021;-71
2024/02/18 03:29:58;;;;;;;9.20;2.55;;;10.80;99.90;;;10.20;100.00;102776.34;4185636;28;20488;-71
2024/02/18 03:31:59;;;;;;;11.32;2.67;;;10.80;99.90;;;10.20;100.00;102773.69;4185504;28;20110;-71
2024/02/18 03:34:00;;;;;;;11.98;1.50;;;10.80;99.90;;;10.15;100.00;102764.41;4185542;28;20021;-72
2024/02/18 03:36:01;;;;;;;9.38;1.60;;;10.80;99.90;;;10.20;100.00;102767.56;4185035;28;20439;-71
2024/02/18 03:38:02;;;;;;;13.80;2.83;;;10.80;99.90;;;10.19;100.00;102761.44;4167756;28;20056;-71
2024/02/18 03:40:05;;;;;;;14.30;3.22;;;10.80;99.90;;;10.16;100.00;102745.84;4185392;28;20033;-71
2024/02/18 03:42:06;;;;;;;10.73;2.15;;;10.80;99.90;;;10.12;100.00;102732.94;4184275;28;20033;-71
2024/02/18 03:44:07;;;;;;;11.48;2.53;;;10.80;99.90;;;10.16;100.00;102731.81;4185180;28;20027;-71
2024/02/18 03:46:08;;;;;;;19.02;3.38;;;10.70;99.90;;;10.15;100.00;102724.84;4185426;28;20025;-71
2024/02/18 03:48:09;;;;;;;11.73;2.42;;;10.70;99.90;;;10.12;100.00;102719.75;4185171;28;20086;-72
2024/02/18 03:50:14;;;;;;;12.30;2.78;;;10.70;99.90;;;10.11;100.00;102723.34;4184061;28;20020;-72
2024/02/18 03:52:16;;;;;;;11.50;2.30;;;10.70;99.90;;;10.13;100.00;102705.59;4185051;28;20045;-72
2024/02/18 03:54:18;;;;;;;8.95;2.22;;;10.70;99.90;;;10.13;100.00;102695.06;4185415;28;20036;-71
2024/02/18 03:56:18;;;;;;;16.52;2.38;;;10.70;99.90;;;10.16;100.00;102692.25;4184150;28;20100;-72
2024/02/18 03:58:19;;;;;;;15.55;2.65;;;10.70;99.90;;;10.17;100.00;102678.97;4185195;28;20024;-72
2024/02/18 04:00:20;;;;;;;10.00;2.17;;;10.70;99.90;;;10.14;100.00;102662.50;4185248;28;20028;-72
2024/02/18 04:02:21;;;;;;;12.00;2.15;;;10.80;99.90;;;10.16;100.00;102663.22;4185204;28;20025;-72
2024/02/18 04:04:22;;;;;;;15.70;2.85;;;10.70;99.90;;;10.17;100.00;102673.69;4184144;28;20029;-72
2024/02/18 04:06:22;;;;;;;14.25;2.80;;;10.80;99.90;;;10.17;100.00;102678.13;4185215;28;20024;-72
2024/02/18 04:08:23;;;;;;;13.35;1.60;;;10.80;99.90;;;10.16;100.00;102681.69;4185067;28;20033;-72
2024/02/18 04:10:25;;;;;;;12.95;1.60;;;10.80;99.90;;;10.16;100.00;102677.28;4185206;28;20032;-72
2024/02/18 04:12:26;;;;;;;10.25;1.65;;;10.80;99.90;;;10.15;100.00;102672.97;4185091;28;20053;-72
2024/02/18 04:14:27;;;;;;;17.92;1.83;;;10.70;99.90;;;10.10;100.00;102667.13;4185175;28;20037;-72
2024/02/18 04:16:28;;;;;;;9.75;1.60;;;10.70;99.90;;;10.12;100.00;102675.78;4184975;28;20021;-72
2024/02/18 04:18:29;;;;;;;17.58;2.65;;;10.70;99.90;;;10.11;100.00;102689.06;4183722;28;20527;-72
2024/02/18 04:20:30;;;;;;;6.60;1.50;;;10.70;99.90;;;10.09;100.00;102690.97;4167243;28;20048;-72
2024/02/18 04:22:31;;;;;;;11.20;1.92;;;10.70;99.90;;;10.06;100.00;102693.81;4183572;28;20021;-72
2024/02/18 04:24:32;;;;;;;12.88;1.88;;;10.70;99.90;;;10.08;100.00;102710.38;4183834;28;20029;-72
2024/02/18 04:26:33;;;;;;;14.07;1.95;;;10.70;99.90;;;10.07;100.00;102684.94;4181337;28;20539;-72
2024/02/18 04:28:35;;;;;;;14.13;2.28;;;10.70;99.90;;;10.07;100.00;102677.03;4167237;28;20509;-71
2024/02/18 04:30:36;;;;;;;14.30;2.13;;;10.70;99.90;;;10.06;100.00;102681.47;4183750;28;20131;-71
2024/02/18 04:32:37;;;;;;;13.52;1.77;;;10.60;99.90;;;10.06;100.00;102692.03;4184923;28;20066;-72
2024/02/18 04:34:37;;;;;;;13.52;1.88;;;10.60;99.90;;;10.08;100.00;102690.13;4184877;28;20500;-71
2024/02/18 04:36:38;;;;;;;10.80;2.78;;;10.70;99.90;;;10.12;100.00;102696.88;4184903;28;20029;-72
2024/02/18 04:38:39;;;;;;;9.43;2.42;;;10.70;99.90;;;10.13;100.00;102687.16;4185047;28;20104;-71
2024/02/18 04:40:40;;;;;;;12.13;2.08;;;10.70;99.90;;;10.10;100.00;102675.03;4185023;28;20059;-71
2024/02/18 04:42:41;;;;;;;12.77;1.70;;;10.70;99.90;;;10.18;100.00;102688.59;4183444;28;20025;-71
2024/02/18 04:44:42;;;;;;;15.75;2.10;;;10.70;99.90;;;10.21;100.00;102683.09;4184747;28;20025;-71
2024/02/18 04:46:43;;;;;;;11.35;2.35;;;10.80;99.90;;;10.27;100.00;102684.47;4184682;28;20029;-71
2024/02/18 04:48:44;;;;;;;12.93;2.90;;;10.80;99.90;;;10.27;100.00;102687.09;4184584;28;20041;-71
2024/02/18 04:50:45;;;;;;;10.32;2.00;;;10.80;99.90;;;10.32;100.00;102687.59;4184743;28;20492;-71
2024/02/18 04:52:46;;;;;;;17.08;2.60;;;10.90;99.90;;;10.31;100.00;102692.03;4183467;28;20472;-71
2024/02/18 04:54:47;;;;;;;14.38;2.72;;;10.90;99.90;;;10.36;100.00;102689.91;4183627;28;20033;-71
2024/02/18 04:56:48;;;;;;;20.08;2.10;;;10.90;99.90;;;10.38;100.00;102703.00;4183537;28;20025;-71
2024/02/18 04:58:48;;;;;;;17.15;2.70;;;11.00;99.90;;;10.41;100.00;102708.06;4184238;28;20084;-71
2024/02/18 05:00:50;;;;;;;11.90;2.65;;;11.00;99.90;;;10.41;100.00;102708.06;4183432;28;20025;-71
2024/02/18 05:02:51;;;;;;;13.52;3.35;;;11.00;99.90;;;10.41;100.00;102713.34;4184638;28;20029;-71
2024/02/18 05:04:52;;;;;;;11.50;1.60;;;11.00;99.90;;;10.43;100.00;102706.16;4184394;28;20024;-71
2024/02/18 05:06:53;;;;;;;11.40;2.35;;;11.00;99.90;;;10.45;100.00;102717.47;4183520;28;20033;-71
2024/02/18 05:08:54;;;;;;;16.15;2.45;;;11.00;99.90;;;10.47;100.00;102707.66;4184721;28;20017;-72
2024/02/18 05:10:55;;;;;;;12.38;2.28;;;11.00;99.90;;;10.41;100.00;102703.66;4184794;28;20493;-72
2024/02/18 05:12:56;;;;;;;15.23;2.70;;;11.10;99.90;;;10.44;100.00;102703.44;4183410;28;20021;-71
2024/02/18 05:14:58;;;;;;;17.02;2.70;;;11.10;99.90;;;10.47;100.00;102699.72;4184270;28;20087;-72
2024/02/18 05:16:59;;;;;;;13.75;2.72;;;11.10;99.90;;;10.46;100.00;102684.84;4187799;28;20393;-72
2024/02/18 05:19:00;;;;;;;13.85;1.92;;;11.10;99.90;;;10.47;100.00;102690.03;4186468;28;20035;-71
2024/02/18 05:21:05;;;;;;;19.83;3.75;;;11.10;99.90;;;10.48;100.00;102704.88;4169570;28;20025;-71
2024/02/18 05:23:06;;;;;;;19.00;2.45;;;11.10;99.90;;;10.49;100.00;102703.94;4187337;28;20060;-71
2024/02/18 05:25:07;;;;;;;9.13;1.80;;;11.10;99.90;;;10.50;100.00;102703.00;4187574;28;20032;-71
2024/02/18 05:27:08;;;;;;;10.75;2.65;;;11.10;99.90;;;10.47;100.00;102705.00;4187704;28;20037;-71
2024/02/18 05:29:09;;;;;;;13.32;2.50;;;11.10;99.90;;;10.45;100.00;102693.72;4187604;28;20025;-71
2024/02/18 05:31:22;;;;;;;12.05;2.85;;;11.00;99.90;;;10.44;100.00;102694.66;4187403;28;20435;-71
2024/02/18 05:33:24;;;;;;;16.23;3.08;;;11.00;99.90;;;10.38;100.00;102688.03;4187555;28;20606;-71
2024/02/18 05:35:25;;;;;;;12.48;2.47;;;11.00;99.90;;;10.38;100.00;102692.47;4187034;28;20041;-71
2024/02/18 05:37:26;;;;;;;13.27;1.63;;;11.10;99.90;;;10.45;100.00;102704.28;4187246;28;20021;-71
2024/02/18 05:39:27;;;;;;;14.88;2.35;;;11.10;99.90;;;10.47;100.00;102687.38;4187400;28;20037;-71
2024/02/18 05:41:28;;;;;;;8.00;1.30;;;11.00;99.90;;;10.47;100.00;102678.63;4187269;28;20504;-71
2024/02/18 05:43:29;;;;;;;11.23;2.55;;;11.10;99.90;;;10.48;100.00;102672.41;4163143;28;20037;-72
2024/02/18 05:45:31;;;;;;;12.20;2.00;;;11.10;99.90;;;10.52;100.00;102665.94;4179617;28;20032;-72
2024/02/18 05:47:32;;;;;;;8.88;1.50;;;11.10;99.90;;;10.55;100.00;102669.22;4169337;28;20025;-71
2024/02/18 05:49:33;;;;;;;11.52;3.25;;;11.10;99.90;;;10.55;100.00;102669.22;4185488;28;20172;-72
2024/02/18 05:51:34;;;;;;;12.10;2.30;;;11.10;99.90;;;10.60;100.00;102675.97;4187129;28;20017;-71
2024/02/18 05:53:35;;;;;;;16.70;4.00;;;11.10;99.90;;;10.55;100.00;102678.91;4185965;28;20021;-71
2024/02/18 05:55:36;;;;;;;9.52;2.15;;;11.20;99.90;;;10.59;100.00;102680.41;4187208;28;20489;-71
2024/02/18 05:57:36;;;;;;;14.15;2.35;;;11.10;99.90;;;10.60;100.00;102684.72;4187318;28;20032;-71
2024/02/18 05:59:38;;;;;;;9.93;1.88;;;11.20;99.90;;;10.63;100.00;102695.06;4187084;28;20033;-71
2024/02/18 06:01:39;;;;;;;11.73;2.30;;;11.20;99.90;;;10.63;100.00;102695.06;4185684;28;20032;-71
2024/02/18 06:03:39;;;;;;;11.00;1.23;;;11.20;99.90;;;10.63;100.00;102692.44;4185733;28;20032;-71
2024/02/18 06:05:41;;;;;;;10.80;2.25;;;11.30;99.90;;;10.63;100.00;102676.59;4185453;28;20418;-71
2024/02/18 06:07:42;;;;;;;9.32;2.05;;;11.30;99.90;;;10.74;100.00;102691.66;4187036;28;20091;-71
2024/02/18 06:09:43;;;;;;;9.13;2.17;;;11.30;99.90;;;10.65;100.00;102666.75;4185748;28;20017;-71
2024/02/18 06:11:43;;;;;;;9.32;1.33;;;11.30;99.90;;;10.74;100.00;102668.75;4186757;28;20079;-72
2024/02/18 06:13:45;;;;;;;17.55;3.00;;;11.40;99.90;;;10.81;100.00;102663.88;4185717;28;20408;-71
2024/02/18 06:15:46;;;;;;;9.65;2.15;;;11.40;99.90;;;10.79;100.00;102656.03;4186768;28;20032;-71
2024/02/18 06:17:46;;;;;;;14.38;1.88;;;11.40;99.90;;;10.81;100.00;102654.13;4185033;28;20507;-71
2024/02/18 06:19:47;;;;;;;9.55;1.48;;;11.40;99.90;;;10.82;100.00;102666.38;4169252;28;20041;-71
2024/02/18 06:21:48;;;;;;;12.43;2.20;;;11.40;99.90;;;10.81;100.00;102666.50;4190930;28;20023;-71
2024/02/18 06:23:51;;;;;;;12.82;2.47;;;11.40;99.90;;;10.79;100.00;102663.97;4186637;28;20036;-71
2024/02/18 06:25:51;;;;;;;7.03;2.05;;;11.40;99.90;;;10.81;100.00;102663.88;4185143;28;20108;-71
2024/02/18 06:27:52;;;;;;;13.50;1.60;;;11.40;99.90;;;10.81;100.00;102667.34;4184748;28;20025;-71
2024/02/18 06:29:53;;;;;;;9.90;2.97;;;11.40;99.90;;;10.76;100.00;102650.13;4186552;28;20017;-72
2024/02/18 06:31:54;;;;;;;14.27;2.15;;;11.40;99.90;;;10.80;100.00;102655.09;4185339;28;21285;-71
2024/02/18 06:33:55;;;;;;;13.45;2.38;;;11.40;99.90;;;10.86;100.00;102652.03;4186460;28;20032;-72
2024/02/18 06:35:57;;;;;;;12.80;2.00;;;11.40;99.90;;;10.83;100.00;102641.69;4185967;28;20036;-71
2024/02/18 06:37:57;;;;;;;9.70;2.22;;;11.40;99.90;;;10.85;100.00;102652.13;4185306;28;20096;-71
2024/02/18 06:39:58;;;;;;;18.75;2.75;;;11.40;99.90;;;10.90;100.00;102647.38;4186363;28;20037;-72
2024/02/18 06:41:59;;;;;;;16.38;3.55;;;11.50;99.90;;;10.93;100.00;102647.97;4186325;28;20048;-71
2024/02/18 06:44:00;;;;;;;13.75;2.22;;;11.50;99.90;;;10.93;100.00;102655.06;4185027;28;20035;-72
2024/02/18 06:46:01;;;;;;;10.60;1.85;;;11.50;99.90;;;10.94;100.00;102656.72;4186055;28;20032;-72
2024/02/18 06:48:02;;;;;;;8.93;1.98;;;11.50;99.90;;;10.95;100.00;102653.16;4186108;28;20108;-72
2024/02/18 06:50:03;;;;;;;12.95;3.50;;;11.50;99.90;;;10.98;100.00;102658.19;4181149;28;20028;-71
2024/02/18 06:52:05;;;;;;;16.13;2.55;;;11.50;99.90;;;10.92;100.00;102674.50;4185957;28;20024;-71
2024/02/18 06:54:05;;;;;;;12.23;1.65;;;11.50;99.90;;;10.94;100.00;102668.13;4168431;28;20033;-71
2024/02/18 06:56:06;;;;;;;14.23;2.28;;;11.50;99.90;;;10.94;100.00;102673.41;4201491;28;20021;-72
2024/02/18 06:58:08;;;;;;;16.60;2.55;;;11.50;99.90;;;10.93;100.00;102673.56;4186164;28;20025;-72
2024/02/18 07:00:10;;;;;;;10.43;2.00;;;11.50;99.90;;;10.91;100.00;102676.28;4185772;28;20033;-71
2024/02/18 07:02:12;;;;;;;11.82;2.22;;;11.50;99.90;;;10.95;100.00;102671.63;4184471;28;20060;-71
2024/02/18 07:04:13;;;;;;;13.55;2.90;;;11.50;99.90;;;10.88;100.00;102679.16;4185746;28;20174;-71
2024/02/18 07:06:17;;;;;;;20.17;3.13;;;11.50;99.90;;;10.89;100.00;102688.75;4186129;28;20020;-72
2024/02/18 07:08:18;;;;;;;;;;;11.50;99.90;;;10.86;100.00;102690.78;4186199;28;20075;-71
2024/02/18 07:10:19;;;;;;;12.25;2.15;;;11.40;99.90;;;10.84;100.00;102690.88;4184864;28;19912;-71
2024/02/18 07:12:20;;;;;;;17.55;2.20;;;11.40;99.90;;;10.86;100.00;102698.69;4184439;28;20086;-72
2024/02/18 07:14:20;;;;;;;9.27;2.25;;;11.40;99.90;;;10.85;100.00;102712.84;4185894;28;20090;-72
2024/02/18 07:16:22;;;;;;;12.05;3.13;;;11.40;99.90;;;10.81;100.00;102714.84;4185675;28;20480;-71
2024/02/18 07:18:23;;;;;;;11.82;1.83;;;11.40;99.90;;;10.82;100.00;102713.91;4184625;28;20033;-72
2024/02/18 07:20:25;;;;;;;13.90;2.03;;;11.40;99.90;;;10.76;100.00;102702.94;4185498;28;20032;-72
2024/02/18 07:22:26;;;;;;;14.27;2.67;;;11.40;99.90;;;10.86;100.00;102715.38;4185486;28;20108;-72
2024/02/18 07:24:27;;;;;;;13.30;1.83;;;11.40;99.90;;;10.86;100.00;102704.81;4184506;28;20446;-72
2024/02/18 07:26:28;;;;;;;16.48;2.95;;;11.40;99.90;;;10.86;100.00;102715.38;4185720;28;20025;-72
2024/02/18 07:28:29;;;;;;;14.38;2.28;;;11.40;99.90;;;10.83;100.00;102707.69;4185765;28;20374;-72
2024/02/18 07:30:30;;;;;;;12.35;1.88;;;11.40;99.90;;;10.86;100.00;102720.66;4167814;28;20021;-72
2024/02/18 07:32:30;;;;;;;12.70;2.35;;;11.40;99.90;;;10.86;100.00;102723.31;4207474;28;20031;-72
2024/02/18 07:34:31;;;;;;;11.40;1.65;;;11.40;99.90;;;10.86;100.00;102709.25;4167768;28;20033;-72
2024/02/18 07:36:33;;;;;;;9.23;2.05;;;11.40;99.90;;;10.89;100.00;102712.53;4167576;28;20505;-72
2024/02/18 07:38:34;;;;;;;8.23;1.80;;;11.40;99.90;;;10.89;100.00;102695.84;4167949;28;20048;-72
2024/02/18 07:40:34;;;;;;;12.35;3.03;;;11.40;99.90;;;10.90;100.00;102700.19;4151621;28;20026;-72
2024/02/18 07:42:37;;;;;;;11.55;2.85;;;11.50;99.90;;;10.89;100.00;102685.28;4174906;28;20036;-72
2024/02/18 07:44:42;;;;;;;17.80;3.80;;;11.40;99.90;;;10.90;100.00;102686.97;4184254;28;20040;-72
2024/02/18 07:46:43;;;;;;;14.80;2.70;;;11.40;99.90;;;10.81;100.00;102680.53;4185608;28;20120;-72
2024/02/18 07:48:44;;;;;;;9.77;1.73;;;11.40;99.90;;;10.88;100.00;102696.78;4185124;28;20512;-72
2024/02/18 07:50:45;;;;;;;11.68;2.00;;;11.40;99.90;;;10.90;100.00;102695.72;4184088;28;20424;-72
2024/02/18 07:52:46;;;;;;;12.65;2.53;;;11.40;99.90;;;10.92;100.00;102700.91;4184099;28;20017;-71
2024/02/18 07:54:47;;;;;;;8.05;2.47;;;11.50;99.90;;;10.91;100.00;102705.31;4167527;28;20414;-72
2024/02/18 07:56:48;;;;;;;11.13;2.05;;;11.50;99.90;;;10.90;100.00;102695.72;4184057;28;20090;-72
2024/02/18 07:58:49;;;;;;;14.25;2.92;;;11.50;99.90;;;10.92;100.00;102703.53;4185263;28;20033;-72
2024/02/18 08:00:50;;;;;;;9.82;2.47;;;11.50;99.90;;;10.86;100.00;102694.25;4167513;28;20416;-72
2024/02/18 08:02:51;;;;;;;14.02;2.55;;;11.50;99.90;;;10.95;100.00;102696.25;4183987;28;20162;-72
2024/02/18 08:04:52;;;;;;;15.52;2.30;;;11.50;99.90;;;10.96;100.00;102684.72;4183706;28;20021;-72
2024/02/18 08:06:53;;;;;;;6.97;1.83;;;11.50;99.90;;;10.92;100.00;102672.69;4185030;28;20029;-71
2024/02/18 08:08:53;;;;;;;9.32;2.40;;;11.50;99.90;;;11.00;100.00;102686.19;4185377;28;20501;-72
2024/02/18 08:10:54;;;;;;;11.50;1.60;;;11.60;99.90;;;11.01;100.00;102687.03;4183545;28;20024;-72
2024/02/18 08:12:55;;;;;;;6.85;1.40;;;11.60;99.90;;;11.06;100.00;102690.16;4181352;28;20024;-72
2024/02/18 08:14:56;;;;;;;12.40;2.17;;;11.60;99.90;;;11.01;100.00;102679.97;4184965;28;20413;-72
2024/02/18 08:16:57;;;;;;;13.60;1.90;;;11.60;99.90;;;11.09;100.00;102696.06;4183975;28;20040;-72
2024/02/18 08:18:58;;;;;;;13.48;2.08;;;11.70;99.90;;;11.17;100.00;102698.16;4183796;28;20504;-72